Temp     Hi    Low   Out    Dew  Wind  Wind   Wind    Hi    Hi   Wind   Heat    THW   THSW                Rain  Solar   Solar Hi Solar   UV    UV    Hi     Heat    Cool    In     In    In     In     In   In Air          Wind  Wind    ISS   Arc.
  Date    Time     Out   Temp   Temp   Hum    Pt. Speed   Dir    Run Speed   Dir  Chill  Index  Index  Index   Bar    Rain  Rate   Rad.  Energy    Rad.  Index  Dose   UV     D-D     D-D    Temp   Hum    Dew   Heat    EMC Density     ET   Samp   Tx   Recept  Int.
------------------------------------------------------------------------------------------------------------------------------------------------------------------------------------------------------------------------------------------------------------------------
 4/21/18 12:30a   42.5   43.4   42.5    68   32.7   0.0   ---   0.00   0.0   ---   42.5   41.9   41.9   36.9  30.221  0.00  0.00     0     0.00      0     0.0  0.00   0.0   0.469   0.000   70.7    42   46.5   68.4   8.04  .0748    0.000   671    2    100.0   30 
 4/21/18  1:00a   41.6   42.5   41.6    70   32.5   0.0   ---   0.00   0.0   ---   41.6   41.0   41.0   36.0  30.217  0.00  0.00     0     0.00      0     0.0  0.00   0.0   0.488   0.000   70.2    42   46.0   67.8   8.05  .0749    0.001   684    2    100.0   30 
 4/21/18  1:30a   41.2   41.6   41.2    71   32.5   0.0   ---   0.00   0.0   ---   41.2   40.6   40.6   35.5  30.212  0.00  0.00     0     0.00      0     0.0  0.00   0.0   0.496   0.000   69.7    42   45.6   67.3   8.06  .0749    0.000   684    2    100.0   30 
 4/21/18  2:00a   40.4   41.2   40.4    74   32.8   0.0   ---   0.00   0.0   ---   40.4   39.9   39.9   34.9  30.200  0.00  0.00     0     0.00      0     0.0  0.00   0.0   0.512   0.000   69.4    42   45.3   67.1   8.06  .0749    0.001   672    2    100.0   30 
 4/21/18  2:30a   39.5   40.4   39.5    76   32.6   0.0   ---   0.00   0.0   ---   39.5   39.1   39.1   34.0  30.185  0.00  0.00     0     0.00      0     0.0  0.00   0.0   0.531   0.000   68.9    42   44.9   66.7   8.07  .0750    0.000   685    2    100.0   30 
 4/21/18  3:00a   39.2   39.6   39.2    75   31.9   0.0   ---   0.00   0.0   ---   39.2   38.8   38.8   33.8  30.172  0.00  0.00     0     0.00      0     0.0  0.00   0.0   0.537   0.000   68.5    42   44.5   66.3   8.08  .0750    0.001   683    2    100.0   30 
 4/21/18  3:30a   38.1   39.1   38.1    73   30.2   0.0   ---   0.00   0.0   ---   38.1   37.6   37.6   32.5  30.170  0.00  0.00     0     0.00      0     0.0  0.00   0.0   0.560   0.000   68.0    42   44.0   65.8   8.09  .0751    0.000   669    2    100.0   30 
 4/21/18  4:00a   37.0   38.1   37.0    73   29.1   0.0   ---   0.00   0.0   ---   37.0   36.5   36.5   31.3  30.170  0.00  0.00     0     0.00      0     0.0  0.00   0.0   0.583   0.000   67.7    42   43.8   65.5   8.10  .0752    0.001   684    2    100.0   30 
 4/21/18  4:30a   36.4   37.0   36.4    74   28.9   0.0   ---   0.00   0.0   ---   36.4   36.0   36.0   30.8  30.169  0.00  0.00     0     0.00      0     0.0  0.00   0.0   0.596   0.000   67.4    42   43.5   65.2   8.10  .0752    0.000   683    2    100.0   30 
 4/21/18  5:00a   36.2   36.4   36.1    79   30.3   0.0   ---   0.00   0.0   ---   36.2   35.9   35.9   30.9  30.167  0.00  0.00     0     0.00      0     0.0  0.00   0.0   0.600   0.000   67.0    42   43.1   64.7   8.11  .0753    0.000   536    2     80.4   30 
 4/21/18  5:30a   35.8   36.2   35.8    77   29.3   0.0   ---   0.00   0.0   ---   35.8   35.4   35.4   30.2  30.170  0.00  0.00     0     0.00      0     0.0  0.00   0.0   0.608   0.000   66.6    42   42.8   64.3   8.12  .0753    0.000   684    2    100.0   30 
 4/21/18  6:00a   35.5   35.8   35.5    79   29.6   0.0   ---   0.00   0.0   ---   35.5   35.2   35.2   30.0  30.173  0.00  0.00     0     0.00      0     0.0  0.00   0.0   0.615   0.000   66.2    42   42.4   63.8   8.13  .0754    0.000   683    2    100.0   30 
 4/21/18  6:30a   35.0   35.5   34.9    76   28.2   0.0   ---   0.00   0.0   ---   35.0   34.6   34.6   29.5  30.177  0.00  0.00     3     0.13      9     0.0  0.00   0.0   0.625   0.000   65.9    42   42.1   63.5   8.13  .0755    0.000   672    2    100.0   30 
 4/21/18  7:00a   35.2   35.2   34.9    78   29.0   0.0   ---   0.00   0.0   ---   35.2   34.9   34.9   30.2  30.185  0.00  0.00    16     0.69     21     0.0  0.00   0.0   0.621   0.000   65.8    42   42.1   63.4   8.13  .0755    0.000   587    2     88.0   30 
 4/21/18  7:30a   35.7   35.7   35.2    80   30.1   0.0   ---   0.00   0.0   ---   35.7   35.4   35.4   33.5  30.191  0.00  0.00    25     1.08     30     0.0  0.00   0.0   0.610   0.000   66.2    42   42.4   63.8   8.13  .0755    0.000   682    2    100.0   30 
 4/21/18  8:00a   39.1   39.1   35.7    78   32.8   0.0   ---   0.00   0.0   ---   39.1   38.8   38.8   42.6  30.192  0.00  0.00   204     8.77    290     0.5  0.08   0.6   0.540   0.000   67.5    42   43.6   65.3   8.10  .0752    0.002   670    2    100.0   30 
 4/21/18  8:30a   45.6   45.6   39.1    70   36.4   0.0   ---   0.00   0.0   ---   45.6   45.1   45.1   52.2  30.190  0.00  0.00   347    14.92    401     0.9  0.14   1.2   0.404   0.000   69.2    41   44.5   66.8   7.95  .0750    0.000   685    2    100.0   30 
 4/21/18  9:00a   53.1   53.1   45.7    55   37.3   0.0     W   0.00   1.0     W   53.1   51.7   51.7   60.1  30.189  0.00  0.00   458    19.70    510     1.6  0.26   2.0   0.248   0.000   70.4    41   45.6   67.9   7.93  .0748    0.007   683    2    100.0   30 
 4/21/18  9:30a   58.6   58.6   53.2    43   36.2   0.0   ---   0.00   0.0   ---   58.6   56.2   56.2   65.2  30.184  0.00  0.00   560    24.08    612     2.4  0.39   3.0   0.133   0.000   70.9    42   46.7   68.7   8.03  .0747    0.000   676    2    100.0   30 
 4/21/18 10:00a   63.6   63.6   58.6    36   36.1   0.0     W   0.00   3.0     W   63.6   60.5   60.5   69.9  30.177  0.00  0.00   661    28.43    707     3.5  0.56   4.0   0.029   0.000   70.9    41   46.0   68.6   7.91  .0747    0.013   683    2    100.0   30 
 4/21/18 10:30a   70.3   70.3   63.7    26   33.8   4.0   ESE   2.00  13.0     E   70.3   66.4   66.4   75.8  30.172  0.00  0.00   750    32.25    788     4.7  0.76   5.5   0.000   0.110   71.1    41   46.2   68.8   7.91  .0746    0.000   677    2    100.0   30 
 4/21/18 11:00a   73.0   73.0   70.3    23   33.0   6.0   ESE   3.00  15.0   ESE   73.0   70.0   70.0   79.4  30.168  0.00  0.00   825    35.48    858     6.1  0.98   6.7   0.000   0.167   71.1    40   45.5   68.8   7.73  .0746    0.022   680    2    100.0   30 
 4/21/18 11:30a   74.6   74.6   73.1    21   32.1   7.0   ESE   3.50  16.0     E   74.6   72.0   72.0   81.3  30.164  0.00  0.00   891    38.32    921     7.3  1.17   7.9   0.000   0.200   71.1    40   45.5   68.8   7.73  .0746    0.000   685    2    100.0   30 
 4/21/18 12:00p   75.9   75.9   74.6    18   29.3   7.0    SE   3.50  17.0     E   75.9   73.7   73.7   83.0  30.151  0.00  0.00   942    40.51    960     8.2  1.32   8.6   0.000   0.227   71.8    26   35.0   68.4   5.58  .0747    0.027   671    2    100.0   30 
 4/21/18 12:30p   76.7   76.7   75.9    16   27.1   8.0    SE   4.00  18.0     E   76.2   74.8   74.3   83.3  30.134  0.00  0.00   975    41.93    984     8.8  1.41   9.0   0.000   0.244   73.0    23   33.0   70.0   5.09  .0746    0.000   682    2    100.0   30 
 4/21/18  1:00p   73.3   77.0   73.1    28   38.2   6.0   NNW   3.00  15.0   ENE   73.3   71.0   71.0   81.1  30.122  0.00  0.00   989    42.53    995     9.1  1.46   9.2   0.000   0.173   72.8    29   38.7   70.3   5.94  .0744    0.029   679    2    100.0   30 
 4/21/18  1:30p   71.2   73.4   71.0    33   40.6   9.0   NNW   4.50  15.0   NNW   69.8   68.3   66.9   76.3  30.115  0.00  0.00   985    42.36    988     9.0  1.45   9.2   0.000   0.129   72.6    33   41.8   70.4   6.60  .0744    0.000   674    2    100.0   30 
 4/21/18  2:00p   70.0   71.6   70.0    39   43.9  11.0   NNW   5.50  18.0   NNW   67.4   67.2   64.6   73.9  30.105  0.00  0.00   976    41.97    981     8.6  1.38   8.9   0.000   0.104   72.6    34   42.6   70.5   6.80  .0743    0.029   684    2    100.0   30 
 4/21/18  2:30p   68.9   70.0   68.3    41   44.2  13.0   NNW   6.50  22.0   NNW   65.3   66.6   63.0   70.6  30.099  0.00  0.00   839    36.08    983     7.0  1.13   8.3   0.000   0.081   72.6    36   44.1   70.7   7.15  .0743    0.000   675    2    100.0   30 
 4/21/18  3:00p   68.4   69.3   68.4    39   42.5  13.0   NNW   6.50  21.0   NNW   64.8   65.9   62.3   70.3  30.086  0.00  0.00   802    34.49    965     6.3  1.01   7.5   0.000   0.071   73.5    36   44.9   72.0   7.11  .0741    0.025   679    2    100.0   30 
 4/21/18  3:30p   68.7   69.2   68.2    40   43.4  14.0   NNW   7.00  23.0   NNW   64.7   66.3   62.3   70.7  30.076  0.00  0.00   757    32.56    868     5.3  0.85   6.1   0.000   0.077   73.5    36   44.9   72.0   7.11  .0741    0.000   684    2    100.0   30 
 4/21/18  4:00p   69.5   69.5   68.5    39   43.4  12.0   NNW   6.00  21.0   NNW   66.4   66.8   63.7   73.5  30.071  0.00  0.00   709    30.49    807     4.2  0.67   4.7   0.000   0.094   73.8    39   47.3   72.7   7.57  .0739    0.023   671    2    100.0   30 
 4/21/18  4:30p   67.2   69.5   67.2    38   40.7  12.0   NNW   6.00  19.0     N   64.0   64.5   61.3   68.0  30.072  0.00  0.00   448    19.27    659     2.6  0.42   3.7   0.000   0.046   74.0    38   46.8   72.9   7.39  .0739    0.000   684    2    100.0   30 
 4/21/18  5:00p   68.3   68.4   67.2    38   41.7  12.0   NNW   6.00  19.0   NNW   65.2   65.7   62.6   72.8  30.071  0.00  0.00   537    23.09    642     2.1  0.34   2.4   0.000   0.069   74.5    38   47.2   73.5   7.37  .0739    0.018   682    2    100.0   30 
 4/21/18  5:30p   66.7   68.3   66.6    41   42.2   9.0   NNW   4.50  17.0   NNW   65.4   64.3   63.0   67.7  30.067  0.00  0.00   235    10.11    258     0.9  0.14   1.2   0.000   0.035   74.5    37   46.5   73.4   7.26  .0739    0.000   671    2    100.0   30 
 4/21/18  6:00p   66.9   66.9   66.4    41   42.4   6.0   NNW   3.00  13.0     N   66.9   64.5   64.5   69.8  30.064  0.00  0.00   222     9.55    243     0.4  0.06   0.8   0.000   0.040   74.2    37   46.2   73.1   7.27  .0739    0.009   685    2    100.0   30 
 4/21/18  6:30p   66.5   67.1   66.5    43   43.3   3.0   NNW   1.50  10.0   NNW   66.5   64.3   64.3   63.8  30.062  0.00  0.00   188     8.09    223     0.0  0.00   0.0   0.000   0.031   74.2    37   46.2   73.1   7.27  .0739    0.000   679    2    100.0   30 
 4/21/18  7:00p   65.0   66.5   65.0    44   42.5   2.0   NNW   1.00   8.0   NNW   65.0   62.7   62.7   60.1  30.060  0.00  0.00    89     3.83    127     0.0  0.00   0.0   0.000   0.000   74.2    38   47.0   73.2   7.38  .0739    0.005   674    2    100.0   30 
 4/21/18  7:30p   62.4   65.0   62.4    48   42.4   4.0   NNW   2.00  10.0   NNW   62.4   60.3   60.3   56.3  30.060  0.00  0.00    27     1.16     53     0.0  0.00   0.0   0.054   0.000   74.2    40   48.3   73.3   7.67  .0738    0.000   685    2    100.0   30 
 4/21/18  8:00p   61.2   62.4   61.2    49   41.9   1.0   NNW   0.50   8.0   NNW   61.2   59.2   59.2   54.6  30.068  0.00  0.00     0     0.00      0     0.0  0.00   0.0   0.079   0.000   74.5    41   49.2   73.7   7.77  .0738    0.002   674    2    100.0   30 
 4/21/18  8:30p   60.4   61.2   60.4    50   41.7   0.0   ---   0.00   0.0   ---   60.4   58.4   58.4   53.8  30.077  0.00  0.00     0     0.00      0     0.0  0.00   0.0   0.096   0.000   75.0    42   50.3   74.4   7.95  .0737    0.000   682    2    100.0   30 
 4/21/18  9:00p   59.2   60.4   59.2    54   42.6   0.0   ---   0.00   0.0   ---   59.2   57.5   57.5   53.0  30.089  0.00  0.00     0     0.00      0     0.0  0.00   0.0   0.121   0.000   75.2    43   51.2   74.7   8.05  .0737    0.002   685    2    100.0   30 
 4/21/18  9:30p   56.9   59.1   56.9    57   41.8   0.0   ---   0.00   0.0   ---   56.9   55.4   55.4   50.8  30.087  0.00  0.00     0     0.00      0     0.0  0.00   0.0   0.169   0.000   75.0    43   51.0   74.5   8.05  .0737    0.000   669    2    100.0   30 
 4/21/18 10:00p   55.5   56.9   55.5    59   41.4   0.0   ---   0.00   0.0   ---   55.5   54.2   54.2   49.6  30.088  0.00  0.00     0     0.00      0     0.0  0.00   0.0   0.198   0.000   75.0    43   51.0   74.5   8.05  .0737    0.001   686    2    100.0   30 
 4/21/18 10:30p   53.9   55.5   53.9    61   40.8   0.0   ---   0.00   0.0   ---   53.9   52.8   52.8   48.2  30.086  0.00  0.00     0     0.00      0     0.0  0.00   0.0   0.231   0.000   74.9    42   50.3   74.3   7.95  .0737    0.000   680    2    100.0   30 
 4/21/18 11:00p   52.7   53.9   52.7    64   40.9   0.0   ---   0.00   0.0   ---   52.7   51.8   51.8   47.2  30.085  0.00  0.00     0     0.00      0     0.0  0.00   0.0   0.256   0.000   74.5    43   50.5   73.9   8.07  .0738    0.001   676    2    100.0   30 
 4/21/18 11:30p   51.3   52.7   51.3    67   40.7   0.0   ---   0.00   0.0   ---   51.3   50.7   50.7   46.1  30.077  0.00  0.00     0     0.00      0     0.0  0.00   0.0   0.285   0.000   74.2    42   49.6   73.5   7.97  .0738    0.000   685    2    100.0   30 
 4/22/18 12:00a   50.0   51.3   50.0    69   40.2   0.0   ---   0.00   0.0   ---   50.0   49.6   49.6   45.0  30.080  0.00  0.00     0     0.00      0     0.0  0.00   0.0   0.313   0.000   73.5    42   49.0   72.5   7.98  .0740    0.001   676    2    100.0   30 
 4/22/18 12:30a   49.2   50.0   49.1    71   40.2   0.0   ---   0.00   0.0   ---   49.2   48.8   48.8   44.2  30.077  0.00  0.00     0     0.00      0     0.0  0.00   0.0   0.329   0.000   73.1    42   48.6   72.0   7.99  .0740    0.000   675    2    100.0   30 
 4/22/18  1:00a   48.3   49.2   48.3    72   39.7   0.0   ---   0.00   0.0   ---   48.3   47.9   47.9   43.2  30.076  0.00  0.00     0     0.00      0     0.0  0.00   0.0   0.348   0.000   72.6    42   48.2   71.2   8.00  .0741    0.001   686    2    100.0   30 
 4/22/18  1:30a   48.7   48.7   48.3    70   39.4   0.0   ---   0.00   0.0   ---   48.7   48.3   48.3   43.6  30.066  0.00  0.00     0     0.00      0     0.0  0.00   0.0   0.340   0.000   72.3    42   47.9   70.8   8.00  .0741    0.000   674    2    100.0   30 
 4/22/18  2:00a   47.9   48.7   47.9    72   39.3   0.0   ---   0.00   0.0   ---   47.9   47.5   47.5   42.8  30.059  0.00  0.00     0     0.00      0     0.0  0.00   0.0   0.356   0.000   71.9    42   47.6   70.1   8.01  .0742    0.001   679    2    100.0   30 
 4/22/18  2:30a   47.7   47.9   47.7    72   39.1   0.0   ---   0.00   0.0   ---   47.7   47.3   47.3   42.6  30.047  0.00  0.00     0     0.00      0     0.0  0.00   0.0   0.360   0.000   71.4    42   47.1   69.4   8.02  .0742    0.000   684    2    100.0   30 
 4/22/18  3:00a   47.2   47.7   47.2    73   39.0   0.0   ---   0.00   0.0   ---   47.2   46.8   46.8   42.1  30.040  0.00  0.00     0     0.00      0     0.0  0.00   0.0   0.371   0.000   71.1    42   46.8   68.9   8.03  .0743    0.001   671    2    100.0   30 
 4/22/18  3:30a   46.6   47.2   46.6    74   38.8   0.0   ---   0.00   0.0   ---   46.6   46.2   46.2   41.5  30.034  0.00  0.00     0     0.00      0     0.0  0.00   0.0   0.383   0.000   70.7    42   46.5   68.4   8.04  .0743    0.000   685    2    100.0   30 
 4/22/18  4:00a   46.1   46.6   46.0    76   39.0   0.0   ---   0.00   0.0   ---   46.1   45.7   45.7   41.0  30.029  0.00  0.00     0     0.00      0     0.0  0.00   0.0   0.394   0.000   70.4    42   46.2   68.0   8.04  .0744    0.001   684    2    100.0   30 
 4/22/18  4:30a   45.9   46.1   45.9    76   38.8   0.0   ---   0.00   0.0   ---   45.9   45.5   45.5   40.8  30.023  0.00  0.00     0     0.00      0     0.0  0.00   0.0   0.398   0.000   70.1    42   45.9   67.6   8.05  .0744    0.000   669    2    100.0   30 
 4/22/18  5:00a   45.7   46.0   45.7    76   38.6   0.0   ---   0.00   0.0   ---   45.7   45.3   45.3   40.6  30.016  0.00  0.00     0     0.00      0     0.0  0.00   0.0   0.402   0.000   69.7    42   45.6   67.3   8.06  .0744    0.001   686    2    100.0   30 
 4/22/18  5:30a   45.0   45.7   45.0    77   38.2   0.0   ---   0.00   0.0   ---   45.0   44.7   44.7   40.0  30.013  0.00  0.00     0     0.00      0     0.0  0.00   0.0   0.417   0.000   69.4    42   45.3   67.1   8.06  .0745    0.000   680    2    100.0   30 
 4/22/18  6:00a   44.0   45.0   44.0    78   37.6   0.0   ---   0.00   0.0   ---   44.0   43.7   43.7   38.9  30.010  0.00  0.00     0     0.00      0     0.0  0.00   0.0   0.438   0.000   69.0    42   44.9   66.8   8.07  .0745    0.001   673    2    100.0   30 
 4/22/18  6:30a   43.0   44.0   43.0    78   36.6   0.0   ---   0.00   0.0   ---   43.0   42.7   42.7   37.9  30.010  0.00  0.00     2     0.09      9     0.0  0.00   0.0   0.458   0.000   68.9    42   44.9   66.7   8.07  .0746    0.000   684    2    100.0   30 
 4/22/18  7:00a   42.7   43.0   42.7    81   37.3   0.0   ---   0.00   0.0   ---   42.7   42.4   42.4   38.0  30.011  0.00  0.00    16     0.69     23     0.0  0.00   0.0   0.465   0.000   68.5    42   44.5   66.3   8.08  .0746    0.000   676    2    100.0   30 
 4/22/18  7:30a   43.2   43.2   42.7    82   38.1   0.0   ---   0.00   0.0   ---   43.2   43.0   43.0   41.4  30.015  0.00  0.00    28     1.20     33     0.0  0.00   0.0   0.454   0.000   68.4    42   44.4   66.2   8.08  .0747    0.000   677    2    100.0   30 
 4/22/18  8:00a   46.5   46.5   43.2    79   40.3   0.0   ---   0.00   0.0   ---   46.5   46.3   46.3   50.5  30.013  0.00  0.00   208     8.95    297     0.2  0.03   0.6   0.385   0.000   68.4    42   44.4   66.2   8.08  .0746    0.002   685    2    100.0   30 
 4/22/18  8:30a   52.2   52.2   46.5    67   41.6   0.0   ---   0.00   0.0   ---   52.2   51.5   51.5   58.3  30.005  0.00  0.00   333    14.32    403     0.7  0.11   1.0   0.267   0.000   68.5    42   44.5   66.3   8.08  .0746    0.000   676    2    100.0   30 
 4/22/18  9:00a   58.3   58.3   52.2    57   43.1   0.0   NNW   0.00   3.0   NNW   58.3   56.8   56.8   65.4  30.002  0.00  0.00   457    19.65    527     1.4  0.22   2.0   0.140   0.000   69.6    44   46.7   67.4   8.35  .0744    0.008   683    2    100.0   30 
 4/22/18  9:30a   62.6   62.6   58.4    47   42.1   4.0   NNW   2.00  10.0   NNW   62.6   60.5   60.5   69.9  30.001  0.00  0.00   571    24.56    629     2.6  0.42   3.2   0.050   0.000   71.1    43   47.5   69.1   8.21  .0741    0.000   683    2    100.0   30 
 4/22/18 10:00a   64.1   64.1   62.7    46   42.9   5.0   NNW   2.50  13.0   NNW   64.1   62.0   62.0   71.0  29.994  0.00  0.00   635    27.31    701     3.7  0.59   4.1   0.019   0.000   71.6    43   47.9   69.8   8.19  .0740    0.015   669    2    100.0   30 
 4/22/18 10:30a   65.3   65.3   64.1    47   44.5   5.0   NNW   2.50  12.0     N   65.3   63.3   63.3   71.9  29.986  0.00  0.00   689    29.63    758     4.7  0.76   5.4   0.000   0.006   71.8    43   48.1   70.1   8.18  .0740    0.000   683    2    100.0   30 
 4/22/18 11:00a   66.8   66.8   65.3    45   44.8   6.0   NNW   3.00  12.0   NNW   66.8   64.9   64.9   74.5  29.979  0.00  0.00   814    35.01    844     6.1  0.98   6.6   0.000   0.038   72.1    43   48.4   70.6   8.17  .0739    0.019   682    2    100.0   30 
 4/22/18 11:30a   68.2   68.2   66.8    43   44.8   6.0   NNW   3.00  13.0   NNW   68.2   66.1   66.1   75.7  29.977  0.00  0.00   872    37.50    895     7.1  1.14   7.5   0.000   0.067   72.3    43   48.5   70.9   8.16  .0739    0.000   670    2    100.0   30 
 4/22/18 12:00p   68.9   69.0   68.2    44   46.1   9.0   NNW   4.50  16.0   NNW   67.5   66.9   65.5   74.3  29.969  0.00  0.00   916    39.39    937     8.0  1.29   8.4   0.000   0.081   72.8    42   48.4   71.5   7.99  .0738    0.024   686    2    100.0   30 
 4/22/18 12:30p   70.5   70.5   68.8    43   46.9   9.0   NNW   4.50  14.0     N   69.1   68.3   66.9   75.8  29.960  0.00  0.00   946    40.68    963     8.6  1.38   8.9   0.000   0.115   73.0    42   48.5   71.9   7.99  .0737    0.000   680    2    100.0   30 
 4/22/18  1:00p   72.2   72.2   70.5    39   45.9   8.0   NNW   4.00  15.0   NNW   71.7   70.3   69.8   79.2  29.952  0.00  0.00   963    41.41    977     9.0  1.45   9.2   0.000   0.150   73.1    42   48.6   72.0   7.99  .0737    0.026   674    2    100.0   30 
 4/22/18  1:30p   71.8   72.6   71.7    39   45.5  11.0   NNW   5.50  20.0   NNW   69.2   69.7   67.1   75.8  29.944  0.00  0.00   967    41.59    981     9.0  1.45   9.2   0.000   0.142   73.5    42   49.0   72.5   7.98  .0736    0.000   684    2    100.0   30 
 4/22/18  2:00p   71.8   72.6   71.8    35   42.7  12.0   NNW   6.00  20.0   NNW   68.8   69.3   66.3   74.8  29.947  0.00  0.00   953    40.98    965     8.7  1.40   8.9   0.000   0.142   73.8    42   49.3   72.9   7.97  .0736    0.029   675    2    100.0   30 
 4/22/18  2:30p   72.1   72.1   71.7    32   40.6  12.0   NNW   6.00  20.0   NNW   69.1   69.5   66.5   75.4  29.942  0.00  0.00   924    39.74    947     7.9  1.27   8.4   0.000   0.148   74.0    42   49.4   73.2   7.97  .0735    0.000   681    2    100.0   30